createdAt,value
2022-11-27T00:01:19.854Z,78.11
2022-11-27T00:03:46.567Z,78.26
2022-11-27T00:06:19.366Z,78.18
2022-11-27T00:08:46.200Z,77.85
2022-11-27T00:11:18.130Z,77.75
2022-11-27T00:13:45.361Z,78.09
2022-11-27T00:16:13.155Z,78.25
2022-11-27T00:18:39.963Z,78.88
2022-11-27T00:21:10.274Z,78.36
2022-11-27T00:23:36.805Z,78.71
2022-11-27T00:26:04.881Z,79.07
2022-11-27T00:28:31.563Z,79.26
2022-11-27T00:31:00.210Z,79.27
2022-11-27T00:33:26.847Z,79.38
2022-11-27T00:35:53.429Z,79.04
2022-11-27T00:38:20.531Z,78.21
2022-11-27T00:40:48.038Z,77.66
2022-11-27T00:43:14.561Z,77.42
2022-11-27T00:45:41.016Z,77.50
2022-11-27T00:48:07.477Z,77.57
2022-11-27T00:50:33.987Z,77.75
2022-11-27T00:53:00.571Z,78.06
2022-11-27T00:55:27.259Z,78.33
2022-11-27T00:57:53.708Z,78.28
2022-11-27T01:00:20.533Z,77.91
2022-11-27T01:02:47.071Z,77.53
2022-11-27T01:05:13.607Z,77.44
2022-11-27T01:07:40.119Z,77.49
2022-11-27T01:10:09.054Z,77.56
2022-11-27T01:12:35.530Z,77.16
2022-11-27T01:15:01.988Z,77.59
2022-11-27T01:17:28.426Z,78.08
2022-11-27T01:19:54.868Z,79.00
2022-11-27T01:22:21.336Z,78.30
2022-11-27T01:24:47.766Z,77.65
2022-11-27T01:27:14.932Z,77.82
2022-11-27T01:29:41.351Z,77.38
2022-11-27T01:32:07.789Z,77.65
2022-11-27T01:34:34.446Z,77.47
2022-11-27T01:37:00.892Z,77.03
2022-11-27T01:39:27.344Z,77.07
2022-11-27T01:41:53.802Z,77.10
2022-11-27T01:44:23.288Z,77.10
2022-11-27T01:47:05.219Z,77.08
2022-11-27T01:49:38.719Z,77.34
2022-11-27T01:52:22.081Z,77.14
2022-11-27T01:54:59.963Z,77.01
2022-11-27T01:57:36.128Z,76.50
2022-11-27T02:00:05.621Z,76.95
2022-11-27T02:02:39.126Z,77.15
2022-11-27T02:05:05.745Z,77.45
2022-11-27T02:07:32.328Z,77.05
2022-11-27T02:09:58.902Z,76.69
2022-11-27T02:12:31.803Z,77.08
2022-11-27T02:15:08.035Z,76.98
2022-11-27T02:17:55.111Z,76.74
2022-11-27T02:20:48.815Z,76.75
2022-11-27T02:23:49.394Z,76.63
2022-11-27T02:26:34.372Z,76.97
2022-11-27T02:29:10.991Z,76.20
2022-11-27T02:31:51.388Z,75.74
2022-11-27T02:34:50.683Z,75.66
2022-11-27T02:37:43.152Z,75.64
2022-11-27T02:40:11.451Z,75.86
2022-11-27T02:42:47.337Z,76.12
2022-11-27T02:45:17.412Z,76.59
2022-11-27T02:47:46.263Z,76.97
2022-11-27T02:50:18.124Z,77.28
2022-11-27T02:52:45.837Z,76.92
2022-11-27T02:55:17.061Z,76.66
2022-11-27T02:57:45.579Z,76.77
2022-11-27T03:00:12.995Z,76.56
2022-11-27T03:02:56.872Z,76.49
2022-11-27T03:05:27.121Z,76.38
2022-11-27T03:08:00.679Z,76.26
2022-11-27T03:10:34.306Z,76.43
2022-11-27T03:13:03.198Z,76.54
2022-11-27T03:15:39.671Z,76.38
2022-11-27T03:18:39.133Z,76.37
2022-11-27T03:21:30.680Z,76.03
2022-11-27T03:23:57.900Z,76.37
2022-11-27T03:26:25.217Z,76.39
2022-11-27T03:28:52.724Z,75.85
2022-11-27T03:31:20.229Z,75.98
2022-11-27T03:33:47.311Z,75.22
2022-11-27T03:36:16.692Z,75.77
2022-11-27T03:38:45.174Z,76.12
2022-11-27T03:41:21.045Z,76.12
2022-11-27T03:44:01.229Z,76.07
2022-11-27T03:51:10.499Z,76.23
2022-11-27T03:54:00.802Z,76.17
2022-11-27T03:56:41.814Z,75.55
2022-11-27T03:59:27.307Z,75.20
2022-11-27T04:01:53.810Z,75.62
2022-11-27T04:04:20.404Z,75.67
2022-11-27T04:06:46.971Z,76.01
2022-11-27T04:09:13.467Z,76.46
2022-11-27T04:11:39.920Z,75.85
2022-11-27T04:14:06.682Z,75.64
2022-11-27T04:16:33.213Z,75.42
2022-11-27T04:18:59.719Z,75.86
2022-11-27T04:21:26.227Z,75.99
2022-11-27T04:23:52.663Z,75.89
2022-11-27T04:26:19.098Z,75.94
2022-11-27T04:28:45.509Z,75.62
2022-11-27T04:31:12.016Z,75.65
2022-11-27T04:33:38.716Z,75.27
2022-11-27T04:36:05.531Z,75.87
2022-11-27T04:38:31.955Z,76.13
2022-11-27T04:40:58.432Z,76.00
2022-11-27T04:43:24.881Z,75.64
2022-11-27T04:45:51.627Z,75.99
2022-11-27T04:48:18.066Z,76.89
2022-11-27T04:50:44.547Z,77.82
2022-11-27T04:53:10.978Z,77.44
2022-11-27T04:55:37.433Z,77.46
2022-11-27T04:58:03.911Z,77.20
2022-11-27T05:00:30.450Z,76.52
2022-11-27T05:02:56.976Z,77.00
2022-11-27T05:05:23.462Z,77.02
2022-11-27T05:07:50.038Z,76.84
2022-11-27T05:10:16.677Z,76.48
2022-11-27T05:12:43.177Z,76.82
2022-11-27T05:15:09.825Z,76.92
2022-11-27T05:17:36.268Z,75.24
2022-11-27T05:20:02.771Z,75.81
2022-11-27T05:22:29.302Z,75.24
2022-11-27T05:24:55.722Z,74.95
2022-11-27T05:27:22.167Z,74.94
2022-11-27T05:29:48.624Z,74.83
2022-11-27T05:32:15.118Z,75.39
2022-11-27T05:34:41.740Z,75.89
2022-11-27T05:37:08.483Z,75.98
2022-11-27T05:39:35.577Z,77.01
2022-11-27T05:42:02.019Z,78.25
2022-11-27T05:44:28.521Z,78.92
2022-11-27T05:46:55.011Z,78.86
2022-11-27T05:49:21.490Z,78.05
2022-11-27T05:51:51.216Z,77.55
2022-11-27T05:54:18.765Z,77.86
2022-11-27T05:56:45.281Z,77.99
2022-11-27T05:59:12.574Z,78.26
2022-11-27T06:01:39.109Z,78.33
2022-11-27T06:04:05.727Z,77.98
2022-11-27T06:06:32.160Z,78.24
2022-11-27T06:08:58.587Z,78.10
2022-11-27T06:11:25.017Z,78.13
2022-11-27T06:13:51.721Z,78.41
2022-11-27T06:16:21.710Z,78.60
2022-11-27T06:18:55.608Z,78.80
2022-11-27T06:21:23.454Z,78.18
2022-11-27T06:23:54.902Z,78.22
2022-11-27T06:26:26.086Z,78.46
2022-11-27T06:28:54.577Z,78.51
2022-11-27T06:31:24.228Z,78.62
2022-11-27T06:33:52.219Z,78.90
2022-11-27T06:36:19.939Z,78.55
2022-11-27T06:38:46.658Z,78.99
2022-11-27T06:41:16.124Z,78.65
2022-11-27T06:43:42.815Z,78.81
2022-11-27T06:46:14.027Z,78.97
2022-11-27T06:48:41.382Z,78.35
2022-11-27T06:51:11.242Z,78.37
2022-11-27T06:53:38.287Z,78.42
2022-11-27T06:56:07.086Z,78.97
2022-11-27T06:58:33.531Z,79.55
2022-11-27T07:01:01.323Z,79.62
2022-11-27T07:03:27.978Z,79.54
2022-11-27T07:05:54.619Z,79.51
2022-11-27T07:08:22.266Z,79.51
2022-11-27T07:10:48.742Z,79.39
2022-11-27T07:13:15.262Z,79.48
2022-11-27T07:15:41.719Z,79.50
2022-11-27T07:18:08.181Z,79.44
2022-11-27T07:20:34.635Z,79.09
2022-11-27T07:23:01.082Z,79.33
2022-11-27T07:25:27.548Z,79.28
2022-11-27T07:27:55.517Z,79.72
2022-11-27T07:30:21.999Z,79.82
2022-11-27T07:32:48.417Z,80.07
2022-11-27T07:35:14.896Z,79.82
2022-11-27T07:37:41.355Z,80.39
2022-11-27T07:40:08.237Z,80.60
2022-11-27T07:42:38.969Z,80.45
2022-11-27T07:45:08.174Z,80.00
2022-11-27T07:47:34.649Z,80.39
2022-11-27T07:50:01.414Z,80.04
2022-11-27T07:52:28.127Z,80.73
2022-11-27T07:54:54.606Z,80.58
2022-11-27T07:57:21.425Z,80.58
2022-11-27T07:59:48.027Z,80.70
2022-11-27T08:02:14.872Z,80.56
2022-11-27T08:04:41.924Z,80.57
2022-11-27T08:07:08.705Z,80.70
2022-11-27T08:09:35.237Z,80.40
2022-11-27T08:12:01.715Z,80.47
2022-11-27T08:14:28.204Z,80.14
2022-11-27T08:16:54.755Z,80.30
2022-11-27T08:19:21.675Z,80.59
2022-11-27T08:21:48.117Z,80.18
2022-11-27T08:24:14.634Z,80.57
2022-11-27T08:26:41.145Z,80.38
2022-11-27T08:29:09.976Z,80.55
2022-11-27T08:31:36.481Z,80.15
2022-11-27T08:34:03.515Z,79.86
2022-11-27T08:36:29.992Z,80.27
2022-11-27T08:38:57.025Z,80.65
2022-11-27T08:41:23.505Z,80.31
2022-11-27T08:43:49.944Z,79.90
2022-11-27T08:46:16.430Z,80.05
2022-11-27T08:48:43.430Z,80.23
2022-11-27T08:51:15.166Z,80.11
2022-11-27T08:53:44.063Z,79.92
2022-11-27T08:56:22.114Z,80.22
2022-11-27T08:58:49.177Z,80.31
2022-11-27T09:01:27.027Z,79.77
2022-11-27T09:03:53.985Z,80.18
2022-11-27T09:06:23.874Z,79.62
2022-11-27T09:08:50.944Z,79.78
2022-11-27T09:11:19.990Z,79.79
2022-11-27T09:13:47.345Z,79.84
2022-11-27T09:16:16.910Z,79.75
2022-11-27T09:18:48.243Z,79.16
2022-11-27T09:21:17.318Z,77.95
2022-11-27T09:23:43.807Z,77.81
2022-11-27T09:26:13.194Z,77.62
2022-11-27T09:28:40.917Z,77.91
2022-11-27T09:31:09.480Z,77.02
2022-11-27T09:33:38.147Z,77.25
2022-11-27T09:36:13.649Z,76.81
2022-11-27T09:38:40.547Z,76.13
2022-11-27T09:41:15.529Z,76.73
2022-11-27T09:43:48.191Z,76.02
2022-11-27T09:46:31.211Z,76.29
2022-11-27T09:49:00.577Z,75.75
2022-11-27T09:51:35.822Z,75.54
2022-11-27T09:54:34.907Z,75.53
2022-11-27T09:57:02.489Z,75.61
2022-11-27T09:59:46.527Z,75.82
2022-11-27T10:02:18.869Z,75.78
2022-11-27T10:05:12.137Z,76.35
2022-11-27T10:07:47.105Z,76.42
2022-11-27T10:10:32.343Z,76.18
2022-11-27T10:13:26.180Z,75.54
2022-11-27T10:16:14.142Z,76.23
2022-11-27T10:18:47.846Z,75.96
2022-11-27T10:21:15.993Z,75.68
2022-11-27T10:23:54.905Z,76.41
2022-11-27T10:26:31.613Z,75.70
2022-11-27T10:29:14.863Z,76.12
2022-11-27T10:31:53.794Z,75.86
2022-11-27T10:34:31.260Z,75.36
2022-11-27T10:37:01.294Z,75.30
2022-11-27T10:39:41.049Z,74.94
2022-11-27T10:42:13.356Z,75.04
2022-11-27T10:44:45.990Z,75.40
2022-11-27T10:47:14.018Z,75.18
2022-11-27T10:49:41.916Z,74.40
2022-11-27T10:52:17.329Z,74.61
2022-11-27T10:54:46.894Z,75.36
2022-11-27T10:57:40.092Z,75.04
2022-11-27T11:00:19.772Z,75.49
2022-11-27T11:02:46.620Z,75.25
2022-11-27T11:05:45.490Z,75.13
2022-11-27T11:08:19.821Z,75.16
2022-11-27T11:11:02.965Z,75.57
2022-11-27T11:13:40.094Z,74.90
2022-11-27T11:16:24.376Z,74.60
2022-11-27T11:18:55.625Z,74.43
2022-11-27T11:21:45.036Z,74.83
2022-11-27T11:24:23.250Z,75.12
2022-11-27T11:26:52.526Z,75.00
2022-11-27T11:30:06.459Z,75.27
2022-11-27T11:32:37.589Z,74.72
2022-11-27T11:35:23.192Z,74.82
2022-11-27T11:37:50.836Z,75.24
2022-11-27T11:40:20.074Z,75.88
2022-11-27T11:43:01.605Z,75.53
2022-11-27T11:45:32.894Z,74.70
2022-11-27T11:48:02.144Z,74.57
2022-11-27T11:50:41.333Z,74.02
2022-11-27T11:53:40.284Z,74.16
2022-11-27T11:56:12.711Z,74.06
2022-11-27T11:58:57.179Z,73.99
2022-11-27T12:01:54.132Z,73.13
2022-11-27T12:04:27.085Z,73.84
2022-11-27T12:07:24.493Z,73.50
2022-11-27T12:09:53.647Z,73.06
2022-11-27T12:12:47.515Z,73.42
2022-11-27T12:15:32.141Z,73.91
2022-11-27T12:18:11.243Z,73.27
2022-11-27T12:21:03.631Z,73.18
2022-11-27T12:23:45.076Z,72.86
2022-11-27T12:26:59.142Z,72.30
2022-11-27T12:29:52.659Z,72.58
2022-11-27T12:32:32.048Z,73.35
2022-11-27T12:35:14.670Z,73.13
2022-11-27T12:38:00.459Z,73.48
2022-11-27T12:40:35.188Z,73.15
2022-11-27T12:43:26.007Z,73.18
2022-11-27T12:45:59.500Z,72.48
2022-11-27T12:48:43.297Z,73.48
2022-11-27T12:51:15.859Z,73.85
2022-11-27T12:54:02.249Z,73.87
2022-11-27T12:56:32.865Z,74.08
2022-11-27T12:59:15.906Z,73.89
2022-11-27T13:01:50.177Z,73.95
2022-11-27T13:04:26.142Z,74.44
2022-11-27T13:07:14.977Z,74.77
2022-11-27T13:10:00.461Z,75.04
2022-11-27T13:12:35.846Z,75.15
2022-11-27T13:15:07.323Z,75.32
2022-11-27T13:17:39.883Z,75.20
2022-11-27T13:20:16.689Z,75.34
2022-11-27T13:22:43.976Z,75.81
2022-11-27T13:25:14.670Z,75.88
2022-11-27T13:27:46.580Z,75.77
2022-11-27T13:30:24.032Z,75.89
2022-11-27T13:33:02.395Z,76.18
2022-11-27T13:35:36.513Z,76.37
2022-11-27T13:40:44.424Z,77.13
2022-11-27T13:43:28.714Z,77.08
2022-11-27T13:46:26.389Z,77.17
2022-11-27T13:48:57.584Z,76.92
2022-11-27T13:51:33.186Z,76.89
2022-11-27T13:54:17.040Z,77.09
2022-11-27T13:56:43.686Z,77.49
2022-11-27T13:59:20.298Z,77.38
2022-11-27T14:01:58.215Z,77.27
2022-11-27T14:04:26.217Z,77.61
2022-11-27T14:07:16.098Z,77.88
2022-11-27T14:09:45.142Z,77.89
2022-11-27T14:12:32.872Z,78.18
2022-11-27T14:15:20.298Z,78.26
2022-11-27T14:17:49.918Z,78.10
2022-11-27T14:20:16.422Z,78.46
2022-11-27T14:23:10.511Z,78.56
2022-11-27T14:25:36.545Z,78.78
2022-11-27T14:28:22.421Z,78.66
2022-11-27T14:30:57.310Z,78.81
2022-11-27T14:33:26.267Z,78.35
2022-11-27T14:35:55.792Z,78.58
2022-11-27T14:38:23.474Z,78.88
2022-11-27T14:40:53.579Z,78.94
2022-11-27T14:43:26.030Z,78.85
2022-11-27T14:45:56.301Z,79.31
2022-11-27T14:48:28.643Z,79.19
2022-11-27T14:50:55.874Z,79.12
2022-11-27T14:53:27.636Z,79.51
2022-11-27T14:55:57.687Z,79.31
2022-11-27T14:58:29.829Z,79.23
2022-11-27T15:00:56.236Z,79.90
2022-11-27T15:03:24.624Z,79.91
2022-11-27T15:05:55.568Z,80.01
2022-11-27T15:08:22.213Z,79.65
2022-11-27T15:10:52.150Z,79.80
2022-11-27T15:13:24.075Z,79.47
2022-11-27T15:15:58.729Z,79.59
2022-11-27T15:18:27.777Z,79.42
2022-11-27T15:20:55.292Z,79.87
2022-11-27T15:23:24.714Z,79.46
2022-11-27T15:26:16.923Z,79.68
2022-11-27T15:28:52.789Z,79.84
2022-11-27T15:31:23.828Z,79.69
2022-11-27T15:34:04.607Z,79.71
2022-11-27T15:36:43.096Z,79.50
2022-11-27T15:39:35.279Z,79.81
2022-11-27T15:42:04.435Z,79.33
2022-11-27T15:44:32.344Z,79.19
2022-11-27T15:47:02.154Z,79.32
2022-11-27T15:49:29.080Z,79.11
2022-11-27T15:51:56.939Z,79.34
2022-11-27T15:54:24.493Z,79.41
2022-11-27T15:56:51.368Z,79.08
2022-11-27T15:59:20.413Z,79.33
2022-11-27T16:01:47.072Z,79.50
2022-11-27T16:04:13.621Z,79.65
2022-11-27T16:06:40.164Z,79.83
2022-11-27T16:09:07.064Z,79.39
2022-11-27T16:11:33.533Z,79.62
2022-11-27T16:14:00.094Z,79.76
2022-11-27T16:16:27.070Z,79.87
2022-11-27T16:18:57.578Z,79.90
2022-11-27T16:21:29.290Z,80.08
2022-11-27T16:24:03.490Z,79.90
2022-11-27T16:26:30.753Z,79.92
2022-11-27T16:28:58.106Z,80.57
2022-11-27T16:31:26.540Z,80.13
2022-11-27T16:33:53.140Z,80.36
2022-11-27T16:36:22.841Z,79.95
2022-11-27T16:38:52.859Z,80.36
2022-11-27T16:41:20.241Z,80.25
2022-11-27T16:43:50.026Z,79.92
2022-11-27T16:46:26.772Z,80.07
2022-11-27T16:48:55.841Z,79.70
2022-11-27T16:51:31.198Z,79.83
2022-11-27T16:53:59.709Z,79.74
2022-11-27T16:56:28.023Z,79.43
2022-11-27T16:59:00.928Z,80.09
2022-11-27T17:01:34.188Z,79.94
2022-11-27T17:04:03.528Z,80.23
2022-11-27T17:06:32.828Z,80.03
2022-11-27T17:09:01.507Z,80.30
2022-11-27T17:11:32.949Z,80.29
2022-11-27T17:14:03.871Z,80.47
2022-11-27T17:16:31.204Z,80.32
2022-11-27T17:18:58.598Z,81.03
2022-11-27T17:21:29.270Z,81.02
2022-11-27T17:24:01.030Z,80.68
2022-11-27T17:26:34.511Z,81.26
2022-11-27T17:29:02.857Z,80.76
2022-11-27T17:31:36.823Z,81.03
2022-11-27T17:34:05.196Z,81.22
2022-11-27T17:36:37.258Z,81.27
2022-11-27T17:39:05.997Z,81.10
2022-11-27T17:41:33.214Z,81.21
2022-11-27T17:43:59.914Z,80.96
2022-11-27T17:46:28.356Z,80.84
2022-11-27T17:48:57.957Z,80.16
2022-11-27T17:51:24.977Z,80.42
2022-11-27T17:53:51.599Z,80.46
2022-11-27T17:56:20.515Z,80.54
2022-11-27T17:58:47.347Z,80.12
2022-11-27T18:01:19.878Z,80.06
2022-11-27T18:03:50.227Z,79.70
2022-11-27T18:06:19.213Z,80.40
2022-11-27T18:08:47.392Z,79.96
2022-11-27T18:11:21.133Z,80.08
2022-11-27T18:13:48.348Z,80.10
2022-11-27T18:16:18.663Z,80.48
2022-11-27T18:18:45.594Z,80.32
2022-11-27T18:21:18.892Z,79.98
2022-11-27T18:24:21.416Z,80.15
2022-11-27T18:27:06.522Z,79.61
2022-11-27T18:29:23.279Z,80.19
2022-11-27T18:31:51.055Z,79.92
2022-11-27T18:34:18.237Z,79.19
2022-11-27T18:36:46.094Z,79.77
2022-11-27T18:39:13.016Z,79.75
2022-11-27T18:41:39.581Z,79.76
2022-11-27T18:44:08.005Z,79.82
2022-11-27T18:46:34.920Z,79.95
2022-11-27T18:49:01.779Z,80.02
2022-11-27T18:51:28.311Z,79.55
2022-11-27T18:53:56.465Z,79.99
2022-11-27T18:56:29.381Z,79.94
2022-11-27T18:59:01.116Z,79.89
2022-11-27T19:01:30.473Z,80.02
2022-11-27T19:04:00.391Z,80.08
2022-11-27T19:06:28.510Z,80.20
2022-11-27T19:08:56.909Z,79.63
2022-11-27T19:11:24.291Z,79.69
2022-11-27T19:13:53.599Z,79.62
2022-11-27T19:16:23.616Z,79.63
2022-11-27T19:18:50.736Z,79.86
2022-11-27T19:21:20.810Z,80.01
2022-11-27T19:23:48.098Z,79.42
2022-11-27T19:26:17.538Z,80.18
2022-11-27T19:28:45.300Z,80.29
2022-11-27T19:31:13.465Z,80.04
2022-11-27T19:33:40.682Z,80.12
2022-11-27T19:36:11.432Z,79.88
2022-11-27T19:38:39.577Z,79.81
2022-11-27T19:41:14.396Z,80.44
2022-11-27T19:43:41.193Z,80.20
2022-11-27T19:46:19.940Z,80.36
2022-11-27T19:48:47.349Z,80.46
2022-11-27T19:51:14.745Z,80.62
2022-11-27T19:53:42.342Z,80.88
2022-11-27T19:56:09.066Z,80.46
2022-11-27T19:58:36.463Z,80.39
2022-11-27T20:01:06.770Z,80.01
2022-11-27T20:03:33.344Z,80.09
2022-11-27T20:06:11.486Z,79.95
2022-11-27T20:08:40.323Z,80.49
2022-11-27T20:11:09.705Z,80.25
2022-11-27T20:13:36.326Z,79.83
2022-11-27T20:16:10.008Z,79.89
2022-11-27T20:18:37.387Z,80.17
2022-11-27T20:21:11.783Z,80.42
2022-11-27T20:23:39.405Z,80.08
2022-11-27T20:26:07.744Z,79.78
2022-11-27T20:28:34.880Z,80.16
2022-11-27T20:31:02.940Z,80.02
2022-11-27T20:33:31.681Z,80.38
2022-11-27T20:35:58.391Z,79.82
2022-11-27T20:38:26.498Z,79.96
2022-11-27T20:40:53.826Z,80.19
2022-11-27T20:43:20.887Z,80.29
2022-11-27T20:45:52.812Z,80.35
2022-11-27T20:48:19.410Z,79.84
2022-11-27T20:50:51.316Z,80.07
2022-11-27T20:53:18.722Z,80.25
2022-11-27T20:55:45.485Z,79.89
2022-11-27T20:58:12.030Z,80.17
2022-11-27T21:00:40.317Z,80.02
2022-11-27T21:03:07.396Z,79.85
2022-11-27T21:05:33.931Z,79.90
2022-11-27T21:08:00.697Z,79.91
2022-11-27T21:10:28.290Z,80.16
2022-11-27T21:12:54.895Z,80.36
2022-11-27T21:15:21.369Z,80.13
2022-11-27T21:17:47.954Z,79.87
2022-11-27T21:20:14.602Z,80.12
2022-11-27T21:22:43.877Z,80.11
2022-11-27T21:25:10.472Z,80.10
2022-11-27T21:27:37.856Z,79.91
2022-11-27T21:30:05.827Z,79.88
2022-11-27T21:32:32.788Z,79.89
2022-11-27T21:34:59.220Z,80.06
2022-11-27T21:37:25.953Z,79.90
2022-11-27T21:39:52.884Z,79.87
2022-11-27T21:42:20.353Z,79.86
2022-11-27T21:44:47.150Z,80.04
2022-11-27T21:47:13.695Z,79.91
2022-11-27T21:49:40.606Z,80.20
2022-11-27T21:52:08.865Z,80.38
2022-11-27T21:54:36.159Z,79.82
2022-11-27T21:57:02.813Z,80.16
2022-11-27T21:59:29.293Z,79.78
2022-11-27T22:01:59.628Z,79.85
2022-11-27T22:04:26.637Z,79.83
2022-11-27T22:06:53.240Z,80.26
2022-11-27T22:09:19.764Z,80.05
2022-11-27T22:11:46.811Z,80.08
2022-11-27T22:14:15.447Z,80.58
2022-11-27T22:16:45.647Z,80.59
2022-11-27T22:19:14.116Z,80.09
2022-11-27T22:21:40.766Z,80.60
2022-11-27T22:24:12.191Z,79.95
2022-11-27T22:26:43.349Z,80.39
2022-11-27T22:29:09.807Z,80.36
2022-11-27T22:31:36.790Z,79.77
2022-11-27T22:34:03.782Z,79.91
2022-11-27T22:36:34.707Z,80.22
2022-11-27T22:39:04.935Z,79.56
2022-11-27T22:41:36.351Z,79.70
2022-11-27T22:44:14.495Z,80.11
2022-11-27T22:46:42.364Z,79.77
2022-11-27T22:49:11.220Z,80.24
2022-11-27T22:51:38.146Z,80.15
2022-11-27T22:54:08.011Z,79.70
2022-11-27T22:56:34.638Z,80.34
2022-11-27T22:59:30.347Z,80.07
2022-11-27T23:01:48.654Z,79.56
2022-11-27T23:04:16.323Z,79.54
2022-11-27T23:06:47.766Z,79.59
2022-11-27T23:09:15.631Z,79.45
2022-11-27T23:11:42.072Z,79.69
2022-11-27T23:14:08.521Z,79.33
2022-11-27T23:16:35.147Z,79.70
2022-11-27T23:19:01.700Z,79.31
2022-11-27T23:21:28.226Z,79.90
2022-11-27T23:23:54.706Z,80.05
2022-11-27T23:26:23.493Z,79.75
2022-11-27T23:28:53.374Z,80.08
2022-11-27T23:31:30.302Z,79.91
2022-11-27T23:33:58.153Z,80.06
2022-11-27T23:36:24.698Z,80.24
2022-11-27T23:38:51.171Z,80.32
2022-11-27T23:41:24.802Z,79.96
2022-11-27T23:43:52.557Z,80.20
2022-11-27T23:46:20.842Z,79.79
2022-11-27T23:48:47.459Z,80.01
2022-11-27T23:51:19.431Z,79.90
2022-11-27T23:53:47.274Z,80.32
2022-11-27T23:56:20.136Z,80.04
2022-11-27T23:58:47.517Z,80.17
